Pray, Montana
Current Conditions -  °F | °C
As of 4:53 AM on Sunday 23 Nov 2014 (Local Time) from KLVM Reporting Station
Overcast Overcast  
Wind Chill: 21°   Ceiling: 5500
Heat Index: 32°   Visibility: 10mi
Dew Point: 22°   Wind: 16mph
Humidity: 66%   Direction: 270°W
Pressure: 29.84"   Gusts: 21mph
Location:  45.38°N, 110.68°W
Report Text: KLVM 231153Z AUTO 27014G18KT 10SM OVC055 00/M06 A2984 RMK AO2 SLP123 60000 70007 T00001056 10033 21011 52023
Loading
Personal Weather Stations






























Interactive Weather Map New forecast layout! Learn more

10-Day Weather Forecast

Advertisements
Track Severe Weather on mobile